Time;durP1;ratioP1;P1;durP2;ratioP2;P2;SDS_P1;SDS_P2;PMS_P1;PMS_P2;Temp;Humidity;BMP_temperature;BMP_pressure;BME280_temperature;BME280_humidity;BME280_pressure;Samples;Min_cycle;Max_cycle;Signal;HPM_P1;HPM_P2
2021/12/16 00:03:18;;;;;;;90.07;43.70;;;;;;;8.35;100.00;103361.75;4990507;28;20054;-66
2021/12/16 00:06:06;;;;;;;86.35;45.05;;;;;;;8.34;100.00;103360.88;5046313;28;20052;-66
2021/12/16 00:11:05;;;;;;;89.00;47.40;;;;;;;8.33;100.00;103357.28;5045901;28;20103;-66
2021/12/16 00:30:10;;;;;;;88.15;44.25;;;;;;;8.31;100.00;103366.66;5025486;28;20418;-66
2021/12/16 00:32:48;;;;;;;87.18;42.58;;;;;;;8.30;100.00;103368.53;5025956;28;20033;-66
2021/12/16 00:35:16;;;;;;;82.80;42.40;;;;;;;8.30;100.00;103363.06;5031832;28;20032;-66
2021/12/16 00:37:41;;;;;;;87.57;44.28;;;;;;;8.32;100.00;103369.28;5034133;28;20057;-66
2021/12/16 00:40:11;;;;;;;81.50;43.45;;;;;;;8.29;100.00;103369.56;5023435;28;20445;-66
2021/12/16 00:42:50;;;;;;;73.07;41.03;;;;;;;8.29;100.00;103369.56;5033739;28;20021;-66
2021/12/16 00:55:54;;;;;;;76.45;41.58;;;;;;;8.30;100.00;103365.81;5014935;28;20056;-66
2021/12/16 00:58:27;;;;;;;81.45;45.33;;;;;;;8.37;100.00;103357.88;5024922;28;20440;-66
2021/12/16 01:01:07;;;;;;;78.20;40.55;;;;;;;8.33;100.00;103354.56;5030688;28;20503;-66
2021/12/16 01:03:45;;;;;;;76.35;42.30;;;;;;;8.31;100.00;103362.06;5042453;28;20044;-66
2021/12/16 01:06:28;;;;;;;80.95;41.42;;;;;;;8.32;100.00;103368.41;5037650;28;20040;-66
2021/12/16 01:34:03;;;;;;;72.38;40.13;;;;;;;8.32;100.00;103380.22;5044910;28;20491;-66
2021/12/16 01:39:58;;;;;;;75.13;41.22;;;;;;;8.33;100.00;103389.28;5020377;28;20044;-66
2021/12/16 01:47:45;;;;;;;72.30;39.65;;;;;;;8.34;100.00;103396.50;5024516;28;20573;-66
2021/12/16 01:50:19;;;;;;;74.22;40.33;;;;;;;8.34;100.00;103399.22;5042345;28;20925;-66
2021/12/16 01:55:30;;;;;;;80.35;40.13;;;;;;;8.34;100.00;103410.19;5029797;28;20032;-66
2021/12/16 01:58:10;;;;;;;75.05;39.90;;;;;;;8.33;100.00;103406.59;5041476;28;20047;-65
2021/12/16 02:03:40;;;;;;;76.95;40.90;;;;;;;8.33;100.00;103408.47;5043105;28;20056;-66
2021/12/16 02:06:26;;;;;;;70.15;39.90;;;;;;;8.31;100.00;103411.38;5042494;28;20095;-66
2021/12/16 02:08:54;;;;;;;71.00;39.75;;;;;;;8.31;100.00;103419.56;5025632;28;20075;-66
2021/12/16 02:11:47;;;;;;;72.80;41.67;;;;;;;8.32;100.00;103418.56;5028650;28;20033;-65
2021/12/16 02:36:31;;;;;;;77.95;38.95;;;;;;;8.31;100.00;103424.16;5029682;28;20055;-66
2021/12/16 02:39:10;;;;;;;71.28;38.78;;;;;;;8.29;100.00;103421.59;5043726;28;20029;-66
2021/12/16 02:41:39;;;;;;;73.05;39.33;;;;;;;8.29;100.00;103423.47;5033108;28;20113;-65
2021/12/16 02:44:13;;;;;;;74.75;40.05;;;;;;;8.28;100.00;103427.22;5022421;28;20021;-66
2021/12/16 02:49:25;;;;;;;70.72;38.42;;;;;;;8.29;100.00;103435.28;5024758;28;20056;-66
2021/12/16 02:51:51;;;;;;;65.30;39.17;;;;;;;8.29;100.00;103434.41;5031230;28;20469;-65
2021/12/16 02:54:17;;;;;;;69.90;40.17;;;;;;;8.27;100.00;103437.31;5034639;28;20692;-66
2021/12/16 02:56:42;;;;;;;73.53;40.55;;;;;;;8.28;100.00;103428.09;5042942;28;20071;-65
2021/12/16 02:59:08;;;;;;;70.93;38.53;;;;;;;8.29;100.00;103428.94;5029558;28;20030;-65
2021/12/16 03:01:36;;;;;;;70.93;39.72;;;;;;;8.27;100.00;103429.09;5023778;28;20025;-65
2021/12/16 03:04:06;;;;;;;69.13;38.38;;;;;;;8.26;100.00;103424.66;5040583;28;20095;-66
2021/12/16 03:09:00;;;;;;;71.82;40.60;;;;;;;8.26;100.00;103432.88;5009954;22;20714;-65
2021/12/16 03:11:38;;;;;;;73.15;39.78;;;;;;;8.25;100.00;103430.25;5016129;28;20029;-66
2021/12/16 03:16:50;;;;;;;72.93;40.50;;;;;;;8.24;100.00;103432.13;5027281;28;20041;-66
2021/12/16 03:19:29;;;;;;;66.80;37.63;;;;;;;8.23;100.00;103424.94;5011313;28;20025;-65
2021/12/16 03:21:58;;;;;;;70.13;39.60;;;;;;;8.23;100.00;103424.94;5027025;28;20033;-66
2021/12/16 03:32:37;;;;;;;74.75;39.38;;;;;;;8.22;100.00;103433.31;5026728;28;20357;-66
2021/12/16 03:38:03;;;;;;;66.18;38.30;;;;;;;8.21;100.00;103426.97;5017247;28;20047;-65
2021/12/16 03:40:30;;;;;;;67.55;39.15;;;;;;;8.18;100.00;103426.41;5026943;28;20029;-65
2021/12/16 03:43:04;;;;;;;71.10;40.28;;;;;;;8.13;100.00;103431.47;5010240;28;20032;-66
2021/12/16 03:48:39;;;;;;;71.05;39.85;;;;;;;8.06;100.00;103429.34;4988114;28;20065;-66
2021/12/16 03:51:09;;;;;;;75.25;40.67;;;;;;;8.07;100.00;103442.03;4990826;28;20057;-66
2021/12/16 03:53:34;;;;;;;74.93;41.83;;;;;;;8.07;100.00;103442.03;5026948;28;20056;-66
2021/12/16 03:56:00;;;;;;;75.35;41.13;;;;;;;8.07;100.00;103450.22;5009960;28;20029;-65
2021/12/16 03:58:25;;;;;;;79.72;42.78;;;;;;;8.09;100.00;103451.94;5024962;28;20033;-66
2021/12/16 04:00:57;;;;;;;76.40;42.00;;;;;;;8.06;100.00;103445.78;5026474;28;20037;-66
2021/12/16 04:03:22;;;;;;;77.35;41.35;;;;;;;8.05;100.00;103449.50;5026317;28;20487;-66
2021/12/16 04:05:48;;;;;;;77.43;41.15;;;;;;;8.04;100.00;103455.13;5022810;28;20041;-66
2021/12/16 04:08:14;;;;;;;74.88;40.38;;;;;;;8.03;100.00;103450.69;5022416;28;20112;-66
2021/12/16 04:11:00;;;;;;;71.25;40.25;;;;;;;8.01;100.00;103449.97;5026042;28;20029;-66
2021/12/16 04:13:26;;;;;;;70.57;39.97;;;;;;;7.97;100.00;103443.06;5025526;28;20119;-66
2021/12/16 04:15:51;;;;;;;69.40;39.22;;;;;;;7.93;100.00;103453.44;5008913;28;20128;-66
2021/12/16 04:18:17;;;;;;;76.72;40.10;;;;;;;7.90;100.00;103450.13;5010195;28;20142;-66
2021/12/16 04:20:43;;;;;;;66.47;37.90;;;;;;;7.83;100.00;103449.03;5006663;28;20057;-66
2021/12/16 04:23:10;;;;;;;68.10;39.15;;;;;;;7.75;100.00;103444.28;5022238;28;20021;-66
2021/12/16 04:25:40;;;;;;;71.40;39.93;;;;;;;7.70;100.00;103450.19;5014633;28;20030;-66
2021/12/16 04:28:12;;;;;;;76.63;40.25;;;;;;;7.63;100.00;103438.13;5016656;28;20163;-66
2021/12/16 04:30:38;;;;;;;79.45;40.72;;;;;;;7.58;100.00;103440.44;5026170;28;20022;-66
2021/12/16 04:33:03;;;;;;;72.55;40.70;;;;;;;7.54;100.00;103439.00;5008464;28;20034;-66
2021/12/16 04:35:29;;;;;;;75.32;42.10;;;;;;;7.48;100.00;103434.13;5016519;28;20021;-66
2021/12/16 04:37:54;;;;;;;77.07;40.53;;;;;;;7.42;100.00;103440.19;5026053;28;20033;-66
2021/12/16 04:40:20;;;;;;;73.63;39.38;;;;;;;7.36;100.00;103430.72;5025188;28;20022;-65
2021/12/16 04:42:48;;;;;;;77.47;41.78;;;;;;;7.33;100.00;103441.06;5008260;28;20057;-66
2021/12/16 04:45:18;;;;;;;75.78;39.78;;;;;;;7.24;100.00;103438.19;5006088;28;20037;-66
2021/12/16 04:47:44;;;;;;;75.30;39.95;;;;;;;7.20;100.00;103439.50;5014167;28;20029;-66
2021/12/16 04:50:11;;;;;;;70.93;40.80;;;;;;;7.14;100.00;103434.59;5025366;28;20049;-66
2021/12/16 04:52:37;;;;;;;80.63;40.60;;;;;;;7.14;100.00;103442.78;5026087;28;20029;-65
2021/12/16 04:55:07;;;;;;;74.78;39.65;;;;;;;7.10;100.00;103449.59;5014887;28;20100;-68
2021/12/16 04:57:33;;;;;;;71.35;39.63;;;;;;;7.02;100.00;103453.03;5011728;28;20514;-66
2021/12/16 04:59:59;;;;;;;68.07;39.55;;;;;;;6.94;100.00;103452.00;5026321;28;20029;-66
2021/12/16 05:02:26;;;;;;;73.47;39.50;;;;;;;6.92;100.00;103451.28;5025021;28;20431;-66
2021/12/16 05:04:52;;;;;;;68.50;37.90;;;;;;;6.83;100.00;103442.06;5017099;28;20037;-66
2021/12/16 05:07:21;;;;;;;64.88;37.47;;;;;;;6.79;100.00;103447.97;5007453;28;20045;-66
2021/12/16 05:10:04;;;;;;;68.88;36.53;;;;;;;6.75;100.00;103447.41;5025338;28;20041;-66
2021/12/16 05:12:35;;;;;;;64.00;36.63;;;;;;;6.63;100.00;103448.50;5024629;28;20091;-66
2021/12/16 05:15:04;;;;;;;77.80;42.17;;;;;;;6.63;100.00;103460.28;5015848;28;20706;-66
2021/12/16 05:17:53;;;;;;;69.93;36.90;;;;;;;6.53;100.00;103453.94;5009802;28;20033;-66
2021/12/16 05:20:28;;;;;;;75.05;39.50;;;;;;;6.52;100.00;103456.84;5022882;28;20125;-66
2021/12/16 05:28:25;;;;;;;65.97;36.10;;;;;;;6.35;100.00;103461.09;5023568;28;20063;-66
2021/12/16 05:30:51;;;;;;;69.05;36.88;;;;;;;6.29;100.00;103467.97;5024891;28;20108;-66
2021/12/16 05:33:18;;;;;;;57.47;34.92;;;;;;;6.19;100.00;103464.34;5024539;28;20032;-66
2021/12/16 05:35:44;;;;;;;33.33;17.73;;;;;;;5.98;100.00;103469.84;5020997;28;20118;-65
2021/12/16 05:38:11;;;;;;;246.95;27.92;;;;;;;5.92;100.00;103475.84;5006155;28;20034;-66
2021/12/16 05:40:37;;;;;;;48.05;18.77;;;;;;;5.81;100.00;103479.47;5004952;28;20022;-66
2021/12/16 05:43:07;;;;;;;31.08;20.13;;;;;;;5.80;100.00;103476.91;5019402;28;20104;-67
2021/12/16 05:45:33;;;;;;;32.15;21.05;;;;;;;5.77;100.00;103482.63;5008910;28;20423;-66
2021/12/16 05:48:00;;;;;;;31.88;21.60;;;;;;;5.72;100.00;103483.00;5020305;28;20044;-66
2021/12/16 05:50:28;;;;;;;34.97;23.30;;;;;;;5.65;100.00;103485.41;5023760;28;20476;-65
2021/12/16 05:52:54;;;;;;;;;;;;;;;5.72;100.00;103486.59;5013223;28;20023;-66
2021/12/16 05:55:19;;;;;;;45.20;27.77;;;;;;;5.64;100.00;103482.84;5008438;28;20323;-66
2021/12/16 05:57:46;;;;;;;57.95;30.83;;;;;;;5.62;100.00;103491.13;5020477;28;20108;-66
2021/12/16 06:00:24;;;;;;;60.05;33.42;;;;;;;5.64;100.00;103500.06;5024004;28;20034;-65
2021/12/16 06:02:50;;;;;;;50.38;29.50;;;;;;;5.51;100.00;103513.00;5024584;28;20514;-66
2021/12/16 06:05:17;;;;;;;53.08;30.77;;;;;;;5.44;100.00;103511.81;5019083;28;20112;-66
2021/12/16 06:07:42;;;;;;;52.85;33.65;;;;;;;5.40;100.00;103513.06;5014823;28;20100;-66
2021/12/16 06:10:23;;;;;;;51.03;32.70;;;;;;;5.34;100.00;103511.72;5003693;28;20029;-66
2021/12/16 06:12:49;;;;;;;55.53;34.08;;;;;;;5.33;100.00;103514.59;5016071;28;20411;-66
2021/12/16 06:15:22;;;;;;;54.88;33.15;;;;;;;5.28;100.00;103508.69;5018825;28;20469;-66
2021/12/16 06:28:33;;;;;;;62.83;35.15;;;;;;;5.27;100.00;103523.28;5004980;28;20145;-66
2021/12/16 06:30:58;;;;;;;63.50;35.45;;;;;;;5.20;100.00;103529.25;5015622;28;20029;-66
2021/12/16 06:33:23;;;;;;;54.60;30.83;;;;;;;5.08;100.00;103530.28;5019885;28;20029;-66
2021/12/16 06:35:52;;;;;;;57.05;31.55;;;;;;;5.01;100.00;103523.63;5023484;28;20040;-66
2021/12/16 06:38:19;;;;;;;67.60;33.55;;;;;;;5.02;100.00;103525.38;5023353;28;20079;-66
2021/12/16 06:40:44;;;;;;;54.20;31.83;;;;;;;5.01;100.00;103530.91;5023428;28;20026;-66
2021/12/16 06:43:11;;;;;;;50.47;30.20;;;;;;;4.94;100.00;103534.16;5010607;28;20036;-66
2021/12/16 06:45:39;;;;;;;51.20;30.15;;;;;;;4.91;100.00;103528.09;5016056;28;20391;-66
2021/12/16 06:48:19;;;;;;;73.07;34.38;;;;;;;4.89;100.00;103533.69;5023119;28;20136;-67
2021/12/16 06:50:54;;;;;;;89.70;33.38;;;;;;;4.84;100.00;103524.16;5022940;28;20029;-66
2021/12/16 06:53:30;;;;;;;71.85;33.05;;;;;;;4.89;100.00;103530.97;5010553;28;20030;-66
2021/12/16 06:56:04;;;;;;;77.10;33.75;;;;;;;4.88;100.00;103528.38;5019287;28;20107;-66
2021/12/16 06:58:42;;;;;;;84.93;37.10;;;;;;;4.89;100.00;103535.53;5022597;28;20460;-66
2021/12/16 07:01:16;;;;;;;106.22;36.42;;;;;;;4.90;100.00;103543.56;5019795;28;20033;-66
2021/12/16 07:03:49;;;;;;;123.07;40.28;;;;;;;4.93;100.00;103542.47;5023665;28;20025;-66
2021/12/16 07:06:18;;;;;;;193.40;41.30;;;;;;;4.94;100.00;103541.47;5022134;28;20511;-66
2021/12/16 07:08:45;;;;;;;135.77;42.00;;;;;;;4.95;100.00;103549.50;5013072;28;20046;-66
2021/12/16 07:11:11;;;;;;;117.10;38.67;;;;;;;4.97;100.00;103548.50;5016100;28;20080;-66
2021/12/16 07:13:41;;;;;;;126.03;40.95;;;;;;;4.97;100.00;103553.94;5012621;28;20026;-66
2021/12/16 07:16:08;;;;;;;122.72;40.38;;;;;;;4.98;100.00;103547.53;5022155;28;20034;-68
2021/12/16 07:18:33;;;;;;;124.15;41.83;;;;;;;4.97;100.00;103563.00;5023179;28;20025;-66
2021/12/16 07:20:59;;;;;;;122.43;39.72;;;;;;;4.98;100.00;103570.19;5023132;28;20024;-66
2021/12/16 07:23:24;;;;;;;148.05;35.95;;;;;;;4.88;100.00;103574.66;5011815;28;20061;-66
2021/12/16 07:25:49;;;;;;;122.53;30.08;;;;;;;4.70;100.00;103574.31;5017843;28;20044;-66
2021/12/16 07:28:15;;;;;;;79.60;32.88;;;;;;;4.68;100.00;103576.28;5021866;28;20031;-66
2021/12/16 07:30:43;;;;;;;84.18;34.92;;;;;;;4.66;100.00;103581.88;5018855;28;20029;-66
2021/12/16 07:33:12;;;;;;;109.57;37.60;;;;;;;4.68;100.00;103593.50;5022869;28;20105;-66
2021/12/16 07:35:38;;;;;;;176.80;39.35;;;;;;;4.65;100.00;103593.72;5023410;28;20024;-67
2021/12/16 07:38:04;;;;;;;153.02;37.95;;;;;;;4.63;100.00;103601.16;5022500;28;20068;-67
2021/12/16 07:40:31;;;;;;;130.85;36.72;;;;;;;4.63;100.00;103603.03;5018734;28;20480;-68
2021/12/16 07:45:31;;;;;;;140.90;37.30;;;;;;;4.55;100.00;103602.75;5013807;28;20066;-68
2021/12/16 07:47:57;;;;;;;;;;;;;;;4.67;100.00;103620.84;5019905;28;20112;-68
2021/12/16 07:50:25;;;;;;;135.55;35.65;;;;;;;4.55;100.00;103625.41;5020775;28;19983;-67
2021/12/16 07:52:52;;;;;;;126.55;36.45;;;;;;;4.56;100.00;103621.72;5018144;28;20035;-68
2021/12/16 07:55:19;;;;;;;117.20;36.33;;;;;;;4.57;100.00;103631.59;5022591;28;20026;-68
2021/12/16 07:57:44;;;;;;;114.15;37.83;;;;;;;4.59;100.00;103643.22;5025605;28;20029;-68
2021/12/16 08:00:15;;;;;;;91.35;36.85;;;;;;;4.60;100.00;103641.38;5021776;28;20105;-68
2021/12/16 08:02:41;;;;;;;117.13;37.88;;;;;;;4.62;100.00;103637.56;5007855;28;20451;-68
2021/12/16 08:05:08;;;;;;;114.68;42.13;;;;;;;4.63;100.00;103639.28;5026115;28;20104;-68
2021/12/16 08:07:33;;;;;;;103.88;45.80;;;;;;;4.69;100.00;103641.50;5025872;28;20053;-67
2021/12/16 08:09:59;;;;;;;128.65;47.05;;;;;;;4.74;100.00;103645.72;5023648;28;20033;-67
2021/12/16 08:12:24;;;;;;;154.27;41.05;;;;;;;4.67;100.00;103640.75;5005277;28;20022;-67
2021/12/16 08:14:51;;;;;;;89.80;34.17;;;;;;;4.66;100.00;103657.19;5023521;28;20053;-67
2021/12/16 08:17:17;;;;;;;82.78;33.45;;;;;;;4.66;100.00;103655.38;5023812;28;20033;-66
2021/12/16 08:19:45;;;;;;;92.40;35.72;;;;;;;4.72;100.00;103656.72;5025387;28;20025;-67
2021/12/16 08:22:11;;;;;;;77.65;34.42;;;;;;;4.73;100.00;103655.75;5025465;28;20057;-67
2021/12/16 08:24:37;;;;;;;90.93;38.33;;;;;;;4.79;100.00;103657.97;5014209;28;20030;-67
2021/12/16 08:27:03;;;;;;;93.00;37.47;;;;;;;4.89;100.00;103666.25;5009109;28;20032;-68
2021/12/16 08:29:28;;;;;;;97.45;37.53;;;;;;;4.97;100.00;103652.91;5006097;28;20550;-67
2021/12/16 08:31:55;;;;;;;93.13;35.97;;;;;;;5.04;100.00;103662.28;5021538;28;20030;-67
2021/12/16 08:34:21;;;;;;;95.50;39.10;;;;;;;5.12;100.00;103672.53;5025105;28;20435;-67
2021/12/16 08:36:46;;;;;;;82.63;33.55;;;;;;;5.17;100.00;103673.03;5014405;28;20125;-66
2021/12/16 08:39:12;;;;;;;81.63;33.38;;;;;;;5.18;100.00;103672.94;5025534;28;20377;-67
2021/12/16 08:41:41;;;;;;;75.00;30.58;;;;;;;5.27;100.00;103670.41;5007726;28;20051;-68
2021/12/16 08:44:07;;;;;;;85.85;36.28;;;;;;;5.36;100.00;103686.88;5020693;28;20041;-68
2021/12/16 08:46:37;;;;;;;72.88;32.13;;;;;;;5.40;100.00;103693.81;4999844;28;20030;-68
2021/12/16 08:49:04;;;;;;;64.25;30.67;;;;;;;5.48;100.00;103693.19;5004798;28;20590;-68
2021/12/16 08:51:33;;;;;;;77.57;31.80;;;;;;;5.52;100.00;103697.38;5003849;28;20369;-66
2021/12/16 08:53:59;;;;;;;69.90;32.35;;;;;;;5.54;100.00;103706.31;5001450;28;20038;-67
2021/12/16 08:56:27;;;;;;;64.78;30.30;;;;;;;5.56;100.00;103700.72;4993964;28;20109;-67
2021/12/16 08:58:53;;;;;;;63.00;30.55;;;;;;;5.65;100.00;103694.50;4999222;28;20033;-67
2021/12/16 09:01:22;;;;;;;78.57;33.90;;;;;;;5.79;100.00;103696.06;4986467;28;20049;-67
2021/12/16 09:03:48;;;;;;;63.15;30.75;;;;;;;5.92;100.00;103702.25;5005509;28;20476;-67
2021/12/16 09:06:13;;;;;;;66.70;33.17;;;;;;;6.08;100.00;103713.56;5004888;28;20060;-67
2021/12/16 09:08:39;;;;;;;79.35;32.83;;;;;;;6.20;100.00;103712.53;4990651;28;20065;-67
2021/12/16 09:11:08;;;;;;;70.50;32.10;;;;;;;6.35;100.00;103712.22;5004679;28;20514;-67
2021/12/16 09:13:37;;;;;;;66.13;31.10;;;;;;;6.49;100.00;103715.50;5002555;28;20034;-67
2021/12/16 09:16:06;;;;;;;70.63;32.85;;;;;;;6.62;100.00;103719.88;5004673;28;20120;-68
2021/12/16 09:18:34;;;;;;;71.00;32.30;;;;;;;6.78;100.00;103703.00;5005509;28;20026;-69
2021/12/16 09:21:03;;;;;;;73.85;29.92;;;;;;;6.92;100.00;103719.03;4999183;28;20040;-67
2021/12/16 09:23:30;;;;;;;59.65;28.55;;;;;;;7.00;98.38;103725.56;5004332;28;20029;-67
2021/12/16 09:25:55;;;;;;;55.95;28.00;;;;;;;6.95;98.62;103710.56;4998248;28;20398;-67
2021/12/16 09:28:21;;;;;;;59.53;28.85;;;;;;;6.95;98.91;103705.13;4999180;28;20137;-67
2021/12/16 09:30:48;;;;;;;58.15;29.58;;;;;;;7.09;99.10;103715.66;5004534;28;20061;-67
2021/12/16 09:33:16;;;;;;;76.20;31.42;;;;;;;7.15;98.65;103715.13;5004823;28;20037;-67
2021/12/16 09:35:45;;;;;;;67.30;31.75;;;;;;;7.26;99.02;103723.22;5005271;28;20364;-67
2021/12/16 09:38:13;;;;;;;61.13;30.20;;;;;;;7.43;98.77;103723.56;5004347;28;20151;-67
2021/12/16 09:40:49;;;;;;;56.22;29.60;;;;;;;7.60;98.40;103727.47;5003946;28;20037;-67
2021/12/16 09:43:21;;;;;;;62.20;30.45;;;;;;;7.73;97.87;103718.00;5003708;28;20029;-67
2021/12/16 09:45:46;;;;;;;64.63;29.52;;;;;;;7.86;97.33;103728.69;5004771;28;20389;-67
2021/12/16 09:48:12;;;;;;;57.05;29.25;;;;;;;7.96;96.99;103729.56;5003567;28;20026;-67
2021/12/16 09:50:37;;;;;;;63.13;32.17;;;;;;;8.12;96.98;103711.72;5003965;28;20032;-67
2021/12/16 09:53:03;;;;;;;66.80;31.40;;;;;;;8.30;96.15;103705.34;5004047;28;20044;-68
2021/12/16 09:55:29;;;;;;;54.55;30.75;;;;;;;8.33;95.10;103713.28;5004406;28;20757;-67
2021/12/16 09:57:55;;;;;;;53.55;29.05;;;;;;;8.15;95.12;103717.75;5002954;28;20040;-67
2021/12/16 10:00:25;;;;;;;63.65;31.02;;;;;;;8.05;96.28;103720.47;4990654;28;20109;-67
2021/12/16 10:02:51;;;;;;;58.13;31.15;;;;;;;8.33;96.42;103715.16;5004168;28;20080;-67
2021/12/16 10:05:17;;;;;;;49.53;29.45;;;;;;;8.58;95.03;103721.91;4996463;28;20804;-67
2021/12/16 10:07:42;;;;;;;48.28;28.73;;;;;;;8.54;94.63;103724.09;4997634;28;20046;-67
2021/12/16 10:10:12;;;;;;;41.63;27.92;;;;;;;8.77;94.37;103724.63;4999329;28;20030;-67
2021/12/16 10:12:41;;;;;;;40.25;28.58;;;;;;;9.04;92.89;103712.84;4994925;28;20101;-67
2021/12/16 10:17:55;;;;;;;37.27;27.40;;;;;;;10.06;89.66;103720.03;5003458;28;20060;-67
2021/12/16 10:20:26;;;;;;;34.22;26.30;;;;;;;10.42;87.47;103717.28;5003840;28;20037;-67
2021/12/16 10:23:02;;;;;;;36.97;26.27;;;;;;;10.93;86.14;103705.44;5004096;28;20037;-67
2021/12/16 10:25:34;;;;;;;39.13;26.35;;;;;;;11.97;82.84;103704.28;5003759;28;20018;-67
2021/12/16 10:28:02;;;;;;;34.20;24.25;;;;;;;13.15;77.38;103700.88;4999916;28;20757;-67
2021/12/16 10:30:41;;;;;;;32.78;23.80;;;;;;;14.35;75.47;103706.91;5003700;28;20034;-67
2021/12/16 10:33:19;;;;;;;31.73;24.52;;;;;;;15.90;71.65;103699.53;4988359;28;20477;-67
2021/12/16 10:35:47;;;;;;;32.28;22.65;;;;;;;16.90;63.66;103695.75;5000308;28;20481;-66
2021/12/16 10:38:18;;;;;;;30.17;22.73;;;;;;;17.78;60.22;103698.75;4991643;28;20448;-66
2021/12/16 10:40:48;;;;;;;32.35;23.95;;;;;;;18.34;57.92;103698.41;4989482;28;20025;-66
2021/12/16 10:43:35;;;;;;;31.95;23.10;;;;;;;19.17;58.01;103696.00;4992695;28;20651;-66
2021/12/16 10:46:05;;;;;;;33.47;22.27;;;;;;;19.33;54.30;103703.84;4994983;28;20034;-66
2021/12/16 10:48:34;;;;;;;33.03;22.38;;;;;;;19.55;53.69;103707.19;4989411;28;20030;-66
2021/12/16 10:51:08;;;;;;;27.92;21.15;;;;;;;19.92;52.47;103702.75;4997739;28;20034;-66
2021/12/16 10:53:54;;;;;;;30.13;22.13;;;;;;;20.00;56.38;103709.97;5000569;28;20021;-66
2021/12/16 10:56:34;;;;;;;28.80;21.38;;;;;;;20.29;52.43;103718.81;4986918;28;20034;-66
2021/12/16 10:59:11;;;;;;;28.38;20.95;;;;;;;20.25;52.59;103718.38;4995832;28;20030;-66
2021/12/16 11:01:39;;;;;;;31.83;21.25;;;;;;;20.63;50.88;103717.44;5002343;28;20018;-65
2021/12/16 11:04:08;;;;;;;28.23;20.73;;;;;;;20.70;49.52;103723.84;4999568;28;20075;-66
2021/12/16 11:06:38;;;;;;;27.65;19.10;;;;;;;20.68;49.32;103735.25;4994260;28;20034;-66
2021/12/16 11:09:40;;;;;;;26.33;19.23;;;;;;;20.93;54.82;103725.97;5001349;28;20041;-67
2021/12/16 11:12:32;;;;;;;27.08;19.45;;;;;;;21.06;55.07;103720.25;5001429;28;20038;-66
2021/12/16 11:15:15;;;;;;;29.52;18.00;;;;;;;21.49;51.23;103737.00;5001570;28;20076;-66
2021/12/16 11:17:48;;;;;;;27.05;19.40;;;;;;;21.67;49.00;103729.66;5003604;28;20473;-66
2021/12/16 11:20:29;;;;;;;26.08;17.75;;;;;;;20.87;49.56;103729.69;4997489;28;20515;-66
2021/12/16 11:23:00;;;;;;;23.45;17.08;;;;;;;20.06;50.82;103730.53;5021831;28;20041;-66
2021/12/16 11:25:51;;;;;;;27.20;18.70;;;;;;;19.07;53.47;103727.09;5026993;28;20053;-65
2021/12/16 11:28:23;;;;;;;23.67;15.80;;;;;;;17.61;56.81;103728.81;5019333;28;20384;-66
2021/12/16 11:30:52;;;;;;;27.33;17.15;;;;;;;16.50;60.71;103745.38;5008797;28;20355;-66
2021/12/16 11:33:26;;;;;;;25.88;18.13;;;;;;;15.84;63.77;103733.59;5026735;28;20049;-66
2021/12/16 11:36:11;;;;;;;25.05;18.42;;;;;;;15.26;65.73;103729.84;5023075;28;20554;-66
2021/12/16 11:38:44;;;;;;;25.83;17.08;;;;;;;14.53;67.80;103735.09;5027474;28;20026;-66
2021/12/16 11:41:18;;;;;;;27.10;17.00;;;;;;;14.00;69.83;103733.25;5025458;28;20033;-66
2021/12/16 11:43:50;;;;;;;29.70;19.00;;;;;;;13.71;71.01;103728.41;5024056;28;20033;-66
2021/12/16 11:46:34;;;;;;;28.70;18.70;;;;;;;13.98;71.09;103730.66;5026310;28;20030;-66
2021/12/16 11:49:05;;;;;;;27.90;17.42;;;;;;;13.89;70.60;103737.31;5006352;28;20030;-66
2021/12/16 11:51:34;;;;;;;25.35;18.25;;;;;;;13.79;71.45;103721.97;5026631;28;20714;-66
2021/12/16 11:54:03;;;;;;;29.08;18.95;;;;;;;13.92;71.33;103723.09;5016818;28;20045;-66
2021/12/16 11:56:56;;;;;;;25.15;17.92;;;;;;;14.57;70.50;103720.91;5016487;28;20033;-66
2021/12/16 11:59:28;;;;;;;28.52;18.30;;;;;;;14.77;68.51;103713.78;5017900;28;20040;-66
2021/12/16 12:01:55;;;;;;;28.17;18.95;;;;;;;14.99;67.29;103707.31;5025154;28;20458;-66
2021/12/16 12:04:28;;;;;;;30.33;20.17;;;;;;;15.47;66.83;103709.69;5016242;28;20032;-66
2021/12/16 12:06:54;;;;;;;28.35;18.95;;;;;;;16.15;63.94;103699.16;5006926;28;20502;-66
2021/12/16 12:09:20;;;;;;;28.27;18.45;;;;;;;16.52;62.48;103686.88;4991035;28;20105;-66
2021/12/16 12:11:48;;;;;;;25.27;17.33;;;;;;;17.38;59.92;103693.84;4985941;28;20033;-66
2021/12/16 12:14:17;;;;;;;28.75;17.85;;;;;;;18.42;56.89;103696.28;5002336;28;20030;-66
2021/12/16 12:16:46;;;;;;;23.10;16.10;;;;;;;19.28;53.85;103698.09;4990281;28;20034;-67
2021/12/16 12:19:15;;;;;;;23.42;16.42;;;;;;;20.04;52.01;103691.72;5000472;28;20045;-66
2021/12/16 12:22:00;;;;;;;26.48;17.23;;;;;;;20.27;52.69;103693.03;4994862;28;20639;-66
2021/12/16 12:24:43;;;;;;;27.75;19.17;;;;;;;20.71;51.18;103692.03;4998249;28;20042;-66
2021/12/16 12:27:23;;;;;;;25.42;16.50;;;;;;;20.59;49.15;103691.09;4993865;28;20480;-66
2021/12/16 12:29:54;;;;;;;26.20;17.33;;;;;;;20.64;49.32;103683.72;4993695;28;20117;-66
2021/12/16 12:32:25;;;;;;;26.77;17.65;;;;;;;20.86;48.43;103686.94;4999760;28;20667;-66
2021/12/16 12:34:58;;;;;;;27.35;16.52;;;;;;;20.50;48.69;103693.31;4996633;28;20104;-66
2021/12/16 12:37:26;;;;;;;26.08;16.45;;;;;;;20.22;48.57;103690.91;4992867;28;20035;-66
2021/12/16 12:40:00;;;;;;;26.17;16.25;;;;;;;20.45;50.27;103693.97;5004462;28;20129;-66
2021/12/16 12:42:26;;;;;;;25.15;16.15;;;;;;;20.24;49.02;103690.72;4999656;28;20061;-67
2021/12/16 12:44:52;;;;;;;29.48;19.10;;;;;;;20.44;48.75;103689.47;5002418;28;20034;-66
2021/12/16 12:47:25;;;;;;;24.45;17.65;;;;;;;20.49;48.77;103690.75;5001446;28;20471;-66
2021/12/16 12:49:51;;;;;;;28.27;19.45;;;;;;;20.19;48.51;103691.41;5002165;28;20034;-66
2021/12/16 12:52:20;;;;;;;24.20;15.60;;;;;;;20.09;48.72;103697.47;5003443;28;20839;-66
2021/12/16 12:54:59;;;;;;;24.55;17.58;;;;;;;20.00;51.32;103698.81;5005258;28;20034;-66
2021/12/16 12:57:34;;;;;;;24.00;16.38;;;;;;;19.18;51.19;103700.47;5016046;28;20049;-66
2021/12/16 13:00:01;;;;;;;28.63;17.65;;;;;;;17.32;55.91;103693.84;5004473;28;20033;-66
2021/12/16 13:02:34;;;;;;;26.77;16.85;;;;;;;16.14;60.14;103689.13;5004853;28;20026;-66
2021/12/16 13:05:06;;;;;;;26.73;18.52;;;;;;;15.17;63.22;103697.78;5004756;28;20030;-66
2021/12/16 13:07:37;;;;;;;28.00;19.17;;;;;;;14.41;66.03;103697.00;5004806;28;20397;-67
2021/12/16 13:10:26;;;;;;;29.00;19.13;;;;;;;13.89;67.97;103692.22;5005206;28;20101;-67
2021/12/16 13:13:05;;;;;;;29.83;18.33;;;;;;;13.50;69.88;103682.13;4990092;28;20279;-66
2021/12/16 13:23:39;;;;;;;32.92;20.70;;;;;;;12.67;74.49;103696.34;5006045;28;20111;-67
2021/12/16 13:28:42;;;;;;;30.33;20.40;;;;;;;12.40;75.81;103697.56;4994476;28;20625;-66
2021/12/16 13:31:35;;;;;;;32.45;21.77;;;;;;;12.35;76.11;103697.25;5003689;28;20029;-66
2021/12/16 13:34:02;;;;;;;29.65;20.92;;;;;;;12.21;76.54;103701.53;5005286;28;20033;-66
2021/12/16 13:36:48;;;;;;;30.05;20.30;;;;;;;12.24;77.36;103700.34;5005087;28;20029;-66
2021/12/16 13:39:21;;;;;;;30.17;19.27;;;;;;;12.14;77.82;103703.25;5004156;28;20029;-66
2021/12/16 13:42:04;;;;;;;29.50;19.73;;;;;;;12.18;77.60;103702.75;5003185;28;20091;-66
2021/12/16 13:44:39;;;;;;;27.85;18.88;;;;;;;12.12;77.49;103706.19;5004190;28;20080;-66
2021/12/16 13:59:08;;;;;;;31.35;18.55;;;;;;;11.86;78.90;103702.69;5000046;28;20056;-66
2021/12/16 14:01:49;;;;;;;32.15;18.65;;;;;;;11.82;79.26;103704.94;5001035;28;20026;-66
2021/12/16 14:04:52;;;;;;;37.25;19.70;;;;;;;11.77;79.62;103715.59;4993768;28;20025;-66